This is the latest recevied weather packets stored in our database for station/object K5YNC. If no packets are shown the sender has not sent any weather packets the latest 10 day(s).
| Time | Temp. | Humidity | Pressure | Rain* | Wind** | Luminosity | Snow |
|---|---|---|---|---|---|---|---|
| 1777737928 | 21.11° C | 47% | 1024.3 hPa | 0 mm | - | 627 W/m² | - |
| 1777737626 | 21.11° C | 47% | 1024.2 hPa | 0 mm | - | 615 W/m² | - |
| 1777737325 | 21.11° C | 48% | 1024.3 hPa | 0 mm | - | 602 W/m² | - |
| 1777737021 | 20.56° C | 54% | 1024.3 hPa | 0 mm | - | 588 W/m² | - |
| 1777736717 | 20.56° C | 49% | 1024.6 hPa | 0 mm | - | 567 W/m² | - |
| 1777736078 | 20.56° C | 48% | 1024.1 hPa | 0 mm | - | 545 W/m² | - |
| 1777735774 | 19.44° C | 53% | 1024.3 hPa | 0 mm | - | 530 W/m² | - |
| 1777735472 | 20° C | 51% | 1024.4 hPa | 0 mm | - | 516 W/m² | - |
| 1777735170 | 20° C | 51% | 1024.1 hPa | 0 mm | - | 500 W/m² | - |
| 1777734866 | 20° C | 53% | 1024.3 hPa | 0 mm | - | 484 W/m² | - |
| 1777734564 | 19.44° C | 49% | 1024.1 hPa | 0 mm | - | 469 W/m² | - |
| 1777734260 | 19.44° C | 49% | 1024.2 hPa | 0 mm | - | 453 W/m² | - |
| 1777733957 | 18.89° C | 54% | 1024.3 hPa | 0 mm | - | 437 W/m² | - |
| 1777733653 | 18.89° C | 55% | 1024.2 hPa | 0 mm | - | 422 W/m² | - |
| 1777733349 | 18.33° C | 56% | 1024.3 hPa | 0 mm | - | 408 W/m² | - |
| 1777733047 | 18.33° C | 54% | 1024.1 hPa | 0 mm | - | 392 W/m² | - |
| 1777732743 | 17.78° C | 55% | 1024.2 hPa | 0 mm | - | 378 W/m² | - |
| 1777732440 | 17.22° C | 57% | 1024.3 hPa | 0 mm | - | 400 W/m² | - |
| 1777732137 | 17.22° C | 60% | 1024.3 hPa | 0 mm | - | 406 W/m² | - |
| 1777731834 | 16.67° C | 69% | 1024.1 hPa | 0 mm | - | 408 W/m² | - |
| 1777731530 | 15.56° C | 77% | 1024.2 hPa | 0 mm | - | 400 W/m² | - |
| 1777731229 | 15° C | 78% | 1024.3 hPa | 0 mm | - | 366 W/m² | - |
| 1777730926 | 15° C | 78% | 1024.1 hPa | 0 mm | - | 330 W/m² | - |
| 1777730624 | 15° C | 78% | 1024 hPa | 0 mm | - | 292 W/m² | - |
| 1777730320 | 15° C | 77% | 1024.2 hPa | 0 mm | - | 258 W/m² | - |
* Rain latest hour (hover to see other rain measurements)
** Current wind speed in m/s (hover to see current wind gust speed)